Time;durP1;ratioP1;P1;durP2;ratioP2;P2;SDS_P1;SDS_P2;PMS_P1;PMS_P2;Temp;Humidity;BMP_temperature;BMP_pressure;BME280_temperature;BME280_humidity;BME280_pressure;Samples;Min_cycle;Max_cycle;Signal;HPM_P1;HPM_P2
2022/03/19 00:04:19;;;;;;;120.80;60.80;;;;;;;-4.37;63.72;102460.56;215186;1273;141289;-67
2022/03/19 00:09:23;;;;;;;143.10;60.90;;;;;;;-4.48;63.98;102454.47;214234;1273;139974;-66
2022/03/19 00:14:27;;;;;;;129.40;61.60;;;;;;;-4.54;64.26;102458.72;214530;1274;140580;-70
2022/03/19 00:19:31;;;;;;;131.40;61.50;;;;;;;-4.53;64.40;102459.55;215044;1274;140188;-65
2022/03/19 00:24:37;;;;;;;118.20;54.70;;;;;;;-4.51;64.57;102463.40;214845;1273;140687;-67
2022/03/19 00:29:41;;;;;;;119.20;54.10;;;;;;;-4.51;64.64;102463.08;213655;1272;140070;-68
2022/03/19 00:34:46;;;;;;;126.20;57.30;;;;;;;-4.53;64.85;102457.27;214509;1273;140033;-68
2022/03/19 00:39:51;;;;;;;117.90;53.10;;;;;;;-4.55;64.96;102458.93;214443;1272;140135;-68
2022/03/19 00:44:55;;;;;;;117.70;58.00;;;;;;;-4.60;64.96;102456.05;213850;1274;140445;-68
2022/03/19 00:50:00;;;;;;;126.40;55.70;;;;;;;-4.65;65.15;102455.27;213964;1273;140639;-69
2022/03/19 00:55:05;;;;;;;121.00;55.20;;;;;;;-4.71;65.15;102455.73;214768;1273;140316;-67
2022/03/19 01:00:11;;;;;;;115.90;56.10;;;;;;;-4.86;65.09;102454.64;213898;1274;140884;-70
2022/03/19 01:05:17;;;;;;;116.70;57.20;;;;;;;-4.95;65.49;102458.72;214780;1273;142035;-66
2022/03/19 01:10:25;;;;;;;124.70;54.00;;;;;;;-5.03;65.81;102454.05;215040;1273;141415;-67
2022/03/19 01:15:30;;;;;;;107.60;46.00;;;;;;;-5.05;66.15;102452.55;213967;1273;140350;-67
2022/03/19 01:20:34;;;;;;;104.20;50.60;;;;;;;-5.07;66.32;102448.64;215240;1274;139919;-67
2022/03/19 01:25:39;;;;;;;119.90;58.20;;;;;;;-5.07;66.57;102451.42;215900;1273;139977;-75
2022/03/19 01:30:44;;;;;;;115.40;52.20;;;;;;;-5.00;66.47;102446.95;215482;1274;141186;-68
2022/03/19 01:35:50;;;;;;;119.10;56.70;;;;;;;-4.93;66.50;102443.02;216378;1273;140966;-69
2022/03/19 01:40:54;;;;;;;142.70;69.20;;;;;;;-4.88;66.53;102435.83;216004;1274;142570;-72
2022/03/19 01:45:59;;;;;;;159.30;73.20;;;;;;;-4.81;66.58;102436.05;214944;1274;142411;-69
2022/03/19 01:51:04;;;;;;;139.60;68.00;;;;;;;-4.70;66.78;102436.42;215846;1274;141639;-67
2022/03/19 01:56:09;;;;;;;133.70;69.10;;;;;;;-4.59;67.00;102436.23;216012;1274;140503;-68
2022/03/19 02:01:13;;;;;;;105.30;54.00;;;;;;;-4.51;67.03;102432.39;215047;1274;141885;-62
2022/03/19 02:06:18;;;;;;;120.00;57.30;;;;;;;-4.52;66.86;102427.90;213514;1274;141231;-68
2022/03/19 02:11:22;;;;;;;101.70;51.90;;;;;;;-4.56;66.71;102426.16;215009;1274;141259;-68
2022/03/19 02:16:26;;;;;;;101.80;46.80;;;;;;;-4.60;66.91;102427.41;213871;1274;140904;-68
2022/03/19 02:21:40;;;;;;;116.80;54.80;;;;;;;-4.61;67.24;102424.55;214617;1274;142302;-69
2022/03/19 02:26:45;;;;;;;97.30;49.10;;;;;;;-4.60;67.56;102423.42;213943;1274;142127;-67
2022/03/19 02:31:53;;;;;;;84.60;43.40;;;;;;;-4.58;67.66;102427.86;213783;1274;141289;-65
2022/03/19 02:36:58;;;;;;;93.30;48.80;;;;;;;-4.62;67.62;102432.38;214636;1274;141095;-65
2022/03/19 02:42:09;;;;;;;94.40;46.30;;;;;;;-4.64;67.96;102432.67;214076;1274;139630;-68
2022/03/19 02:47:14;;;;;;;110.50;47.70;;;;;;;-4.64;67.95;102430.59;214304;1273;140384;-65
2022/03/19 02:52:18;;;;;;;113.30;55.30;;;;;;;-4.66;67.95;102430.52;213411;1274;142894;-64
2022/03/19 02:57:23;;;;;;;120.80;52.80;;;;;;;-4.61;68.02;102429.57;213735;1273;141717;-64
2022/03/19 03:02:27;;;;;;;104.50;53.70;;;;;;;-4.54;68.03;102428.89;214196;1273;140786;-64
2022/03/19 03:07:32;;;;;;;84.30;39.40;;;;;;;-4.56;68.09;102430.36;213847;1274;139534;-66
2022/03/19 03:12:37;;;;;;;93.60;46.40;;;;;;;-4.61;68.15;102424.69;214476;1273;140235;-69
2022/03/19 03:17:42;;;;;;;115.00;51.40;;;;;;;-4.64;68.19;102431.96;213984;1274;142611;-70
2022/03/19 03:22:47;;;;;;;85.40;41.20;;;;;;;-4.59;68.29;102428.80;215453;1274;141782;-70
2022/03/19 03:27:52;;;;;;;102.60;51.10;;;;;;;-4.59;68.40;102431.04;215294;1274;140992;-66
2022/03/19 03:32:57;;;;;;;87.70;44.30;;;;;;;-4.57;68.29;102426.59;214565;1272;143213;-64
2022/03/19 03:38:00;;;;;;;92.60;47.40;;;;;;;-4.57;68.29;102425.37;215956;1273;139750;-66
2022/03/19 03:43:04;;;;;;;130.10;56.50;;;;;;;-4.56;68.30;102425.85;216071;1273;140440;-71
2022/03/19 03:48:09;;;;;;;81.10;40.70;;;;;;;-4.55;68.05;102426.80;216104;1273;140495;-67
2022/03/19 03:53:13;;;;;;;98.50;49.20;;;;;;;-4.60;67.75;102431.05;215708;1273;140301;-67
2022/03/19 03:58:17;;;;;;;112.90;51.50;;;;;;;-4.70;67.89;102430.34;215281;1272;140491;-67
2022/03/19 04:03:21;;;;;;;124.40;55.80;;;;;;;-4.73;67.90;102428.57;215247;1273;141179;-64
2022/03/19 04:08:25;;;;;;;124.20;60.20;;;;;;;-4.67;68.17;102432.29;215027;1273;140182;-64
2022/03/19 04:13:30;;;;;;;122.60;60.20;;;;;;;-4.64;67.97;102435.77;215147;1274;140035;-66
2022/03/19 04:18:34;;;;;;;122.50;56.10;;;;;;;-4.63;67.95;102441.27;215019;1274;140701;-65
2022/03/19 04:23:39;;;;;;;107.30;53.40;;;;;;;-4.63;67.77;102442.84;215444;1273;140355;-68
2022/03/19 04:28:43;;;;;;;94.00;44.60;;;;;;;-4.70;67.66;102442.80;214693;1274;140746;-66
2022/03/19 04:33:48;;;;;;;104.50;48.80;;;;;;;-4.81;67.73;102448.16;214287;1273;139911;-65
2022/03/19 04:38:53;;;;;;;90.90;43.60;;;;;;;-4.95;67.73;102451.94;213783;1274;151200;-65
2022/03/19 04:43:57;;;;;;;125.80;56.10;;;;;;;-5.04;68.12;102455.30;213783;1274;141626;-64
2022/03/19 04:49:00;;;;;;;114.90;51.50;;;;;;;-5.03;68.38;102448.16;214448;1274;163675;-65
2022/03/19 04:54:06;;;;;;;117.10;50.10;;;;;;;-5.03;68.60;102450.03;214644;1274;140935;-65
2022/03/19 04:59:13;;;;;;;80.10;36.50;;;;;;;-5.01;68.64;102458.45;213693;1274;151358;-65
2022/03/19 05:04:17;;;;;;;117.10;53.30;;;;;;;-5.04;68.62;102466.03;213768;1274;141782;-65
2022/03/19 05:14:46;;;;;;;116.00;54.20;;;;;;;-4.79;68.80;102463.70;214092;1274;141550;-67
2022/03/19 05:19:51;;;;;;;96.90;49.40;;;;;;;-4.61;68.99;102468.93;214073;1273;141055;-66
2022/03/19 05:24:57;;;;;;;104.40;53.60;;;;;;;-4.45;69.15;102466.09;214088;1274;140359;-63
2022/03/19 05:30:03;;;;;;;93.60;45.90;;;;;;;-4.29;69.00;102474.58;214470;1273;140835;-66
2022/03/19 05:35:07;;;;;;;95.40;47.20;;;;;;;-4.19;68.83;102478.61;215253;1274;140456;-65
2022/03/19 05:40:11;;;;;;;78.00;37.90;;;;;;;-4.09;68.69;102478.80;215555;1273;140037;-66
2022/03/19 05:45:15;;;;;;;86.80;38.00;;;;;;;-3.98;68.65;102481.06;216302;1273;141001;-66
2022/03/19 05:50:19;;;;;;;71.40;36.10;;;;;;;-3.86;68.87;102483.08;215934;1274;141377;-67
2022/03/19 05:55:23;;;;;;;92.90;46.20;;;;;;;-3.73;68.72;102487.13;215230;1274;141308;-66
2022/03/19 06:00:27;;;;;;;160.50;66.30;;;;;;;-3.55;68.92;102489.67;215167;1273;141687;-67
2022/03/19 06:05:32;;;;;;;246.40;97.70;;;;;;;-3.26;68.91;102493.78;216242;1272;142181;-66
2022/03/19 06:10:35;;;;;;;220.80;89.00;;;;;;;-3.02;68.77;102499.02;216022;1272;140935;-67
2022/03/19 06:15:42;;;;;;;155.20;65.60;;;;;;;-2.78;68.66;102501.54;215975;1272;140181;-67
2022/03/19 06:20:47;;;;;;;129.00;59.60;;;;;;;-2.53;68.44;102500.59;215131;1273;140847;-66
2022/03/19 06:25:51;;;;;;;107.70;44.60;;;;;;;-2.30;68.30;102501.26;215647;1274;141219;-67
2022/03/19 06:30:55;;;;;;;133.30;55.10;;;;;;;-2.09;68.05;102505.10;214719;1273;140155;-64
2022/03/19 06:41:23;;;;;;;121.20;48.30;;;;;;;-1.64;66.76;102509.85;213935;1274;141225;-65
2022/03/19 06:46:27;;;;;;;67.10;30.70;;;;;;;-1.39;66.13;102522.35;214130;1274;142007;-65
2022/03/19 06:51:34;;;;;;;43.00;24.00;;;;;;;-1.13;65.74;102528.16;215285;1271;139893;-67
2022/03/19 06:56:38;;;;;;;42.00;20.50;;;;;;;-0.87;64.82;102528.66;214591;1274;139358;-65
2022/03/19 07:01:45;;;;;;;54.40;27.20;;;;;;;-0.57;64.22;102531.17;213751;1274;139914;-66
2022/03/19 07:06:53;;;;;;;40.60;23.20;;;;;;;-0.07;63.69;102535.52;214193;1274;141638;-66
2022/03/19 07:12:06;;;;;;;33.50;18.40;;;;;;;0.88;62.91;102538.25;214362;1274;140414;-65
2022/03/19 07:17:11;;;;;;;43.30;24.30;;;;;;;1.88;62.01;102536.29;214296;1274;140206;-69
2022/03/19 07:22:15;;;;;;;27.70;17.10;;;;;;;3.51;61.29;102529.34;214194;1271;141118;-66
2022/03/19 07:27:18;;;;;;;28.60;16.70;;;;;;;5.22;59.57;102529.81;213784;1274;141249;-67
2022/03/19 07:32:22;;;;;;;28.10;14.00;;;;;;;6.72;57.20;102528.23;213732;1274;140620;-68
2022/03/19 07:37:29;;;;;;;21.00;13.40;;;;;;;7.97;54.98;102529.84;213702;1274;140325;-65
2022/03/19 07:42:34;;;;;;;25.90;13.90;;;;;;;9.02;53.01;102532.92;214211;1273;140022;-67
2022/03/19 07:47:38;;;;;;;16.70;12.00;;;;;;;9.34;50.35;102534.56;214832;1271;140740;-68
2022/03/19 07:52:43;;;;;;;16.90;13.10;;;;;;;9.31;48.84;102540.05;214730;1271;139964;-68
2022/03/19 07:57:47;;;;;;;29.60;17.60;;;;;;;9.18;47.40;102541.24;215437;1273;141127;-70
2022/03/19 08:02:52;;;;;;;27.10;15.50;;;;;;;8.92;46.51;102551.71;216108;1272;140134;-69
2022/03/19 08:07:56;;;;;;;17.90;12.00;;;;;;;8.62;45.49;102553.64;215463;1271;141345;-65
2022/03/19 08:13:04;;;;;;;24.10;13.50;;;;;;;8.50;44.97;102558.76;216257;1273;140332;-69
2022/03/19 08:18:10;;;;;;;19.50;11.90;;;;;;;8.47;44.80;102556.80;215848;1274;140537;-67
2022/03/19 08:23:19;;;;;;;18.80;11.90;;;;;;;8.62;44.34;102558.42;216092;1272;139728;-69
2022/03/19 08:28:24;;;;;;;16.90;13.40;;;;;;;8.62;43.92;102560.05;216106;1271;142024;-69
2022/03/19 08:33:27;;;;;;;25.50;15.40;;;;;;;8.65;43.17;102562.09;214358;1271;142252;-69
2022/03/19 08:43:54;;;;;;;25.00;14.40;;;;;;;8.17;41.25;102571.08;215501;1273;139292;-69
2022/03/19 08:48:57;;;;;;;20.40;13.70;;;;;;;7.84;41.01;102574.60;214713;1271;139989;-70
2022/03/19 08:54:03;;;;;;;23.60;11.40;;;;;;;7.79;41.54;102577.39;213840;1273;139995;-67
2022/03/19 08:59:07;;;;;;;18.00;12.90;;;;;;;7.93;41.19;102583.30;214218;1274;140061;-71
2022/03/19 09:04:12;;;;;;;19.70;12.30;;;;;;;7.95;40.85;102578.64;213843;1272;139999;-68
2022/03/19 09:09:17;;;;;;;19.60;12.60;;;;;;;8.07;40.68;102573.04;213706;1274;140532;-68
2022/03/19 09:14:24;;;;;;;19.40;11.20;;;;;;;8.10;40.09;102572.23;213678;1273;235647;-68
2022/03/19 09:19:29;;;;;;;22.70;13.30;;;;;;;8.17;39.99;102567.34;214456;1271;140344;-69
2022/03/19 09:24:34;;;;;;;20.70;14.60;;;;;;;8.15;39.53;102574.23;214601;1274;141193;-70
2022/03/19 09:29:38;;;;;;;22.50;16.50;;;;;;;8.00;38.81;102571.45;215249;1272;140847;-69
2022/03/19 09:34:43;;;;;;;28.10;15.60;;;;;;;8.01;38.96;102573.71;214204;1272;140143;-69
2022/03/19 09:39:52;;;;;;;16.90;11.20;;;;;;;7.97;38.55;102567.38;214868;1274;139521;-67
2022/03/19 09:44:59;;;;;;;16.10;10.70;;;;;;;8.04;38.64;102575.15;215799;1273;141161;-70
2022/03/19 09:50:03;;;;;;;17.20;12.10;;;;;;;8.18;38.18;102567.38;215267;1273;210199;-69
2022/03/19 09:55:13;;;;;;;10.70;9.10;;;;;;;8.41;38.00;102572.60;214773;1272;611837;-69
2022/03/19 10:00:22;;;;;;;12.50;9.30;;;;;;;8.60;37.85;102565.95;216362;1273;139822;-72
2022/03/19 10:10:55;;;;;;;11.90;9.80;;;;;;;8.80;36.55;102565.55;216191;1273;139941;-72
2022/03/19 10:16:00;;;;;;;26.30;12.50;;;;;;;8.78;36.05;102569.43;215654;1273;140991;-71
2022/03/19 10:21:19;;;;;;;17.90;11.50;;;;;;;8.72;36.01;102565.79;216156;1273;139583;-69
2022/03/19 10:26:40;;;;;;;15.60;11.20;;;;;;;8.84;35.82;102563.55;216177;1272;140162;-70
2022/03/19 10:31:46;;;;;;;11.90;10.30;;;;;;;8.84;35.13;102566.69;214009;1271;141950;-70
2022/03/19 10:36:50;;;;;;;19.30;11.40;;;;;;;8.81;35.16;102567.20;214299;1273;141941;-71
2022/03/19 10:41:56;;;;;;;18.80;12.30;;;;;;;8.80;34.85;102568.22;214595;1274;141348;-69
2022/03/19 10:47:03;;;;;;;18.10;11.60;;;;;;;8.83;34.41;102565.09;214309;1271;141573;-68
2022/03/19 10:52:17;;;;;;;18.20;13.10;;;;;;;8.85;34.53;102563.41;214344;1271;139923;-68
2022/03/19 10:57:24;;;;;;;18.90;11.50;;;;;;;9.16;35.09;102556.90;214282;1273;140313;-69
2022/03/19 11:02:35;;;;;;;20.50;15.80;;;;;;;9.35;34.84;102555.12;213486;1274;142367;-70
2022/03/19 11:07:44;;;;;;;18.80;12.60;;;;;;;9.56;34.82;102552.02;213564;1271;141213;-68
2022/03/19 11:12:51;;;;;;;31.60;14.40;;;;;;;9.64;34.58;102551.48;214220;1274;141179;-69
2022/03/19 11:17:58;;;;;;;22.10;13.90;;;;;;;9.59;34.26;102549.88;213441;1273;141689;-70
2022/03/19 11:23:05;;;;;;;18.70;12.70;;;;;;;9.59;34.11;102541.36;214408;1271;140983;-70
2022/03/19 11:28:10;;;;;;;40.30;16.80;;;;;;;9.68;34.29;102539.77;214434;1274;142156;-69
2022/03/19 11:33:15;;;;;;;15.50;9.40;;;;;;;9.60;33.39;102539.34;214580;1273;141072;-69
2022/03/19 11:38:20;;;;;;;20.30;11.90;;;;;;;9.45;33.50;102538.19;213934;1274;141369;-69
2022/03/19 11:43:34;;;;;;;19.70;12.20;;;;;;;9.61;33.69;102525.69;215019;1275;140608;-71
2022/03/19 11:48:50;;;;;;;15.50;12.60;;;;;;;9.79;33.85;102518.33;214836;1273;141899;-69
2022/03/19 11:54:11;;;;;;;12.70;10.50;;;;;;;9.86;33.38;102516.38;214727;1274;141535;-70
2022/03/19 11:59:25;;;;;;;16.30;12.70;;;;;;;9.87;33.00;102511.25;214486;1274;140814;-69
2022/03/19 12:04:57;;;;;;;26.50;13.50;;;;;;;9.82;32.89;102505.24;215142;1274;141062;-71
2022/03/19 12:10:07;;;;;;;15.90;10.30;;;;;;;9.69;32.61;102503.36;215547;1274;140742;-71
2022/03/19 12:15:31;;;;;;;16.70;11.60;;;;;;;9.62;32.68;102501.16;215951;1274;140082;-72
2022/03/19 12:20:42;;;;;;;21.20;12.50;;;;;;;9.50;32.23;102501.80;215101;1274;142254;-71
2022/03/19 12:26:04;;;;;;;16.10;10.40;;;;;;;9.39;32.07;102504.84;214147;1274;143318;-69
2022/03/19 12:31:08;;;;;;;18.50;12.50;;;;;;;9.36;32.24;102496.92;215256;1274;140800;-68
2022/03/19 12:36:18;;;;;;;19.70;12.70;;;;;;;9.47;32.14;102500.01;214107;1274;141342;-68
2022/03/19 12:41:28;;;;;;;12.80;10.20;;;;;;;9.37;32.10;102504.31;215329;1274;141063;-69
2022/03/19 12:47:01;;;;;;;18.20;12.70;;;;;;;9.31;32.13;102493.91;214726;1273;141731;-67
2022/03/19 12:52:10;;;;;;;13.60;9.70;;;;;;;9.25;32.15;102496.73;214066;1274;141679;-71
2022/03/19 12:57:23;;;;;;;14.00;9.90;;;;;;;9.32;32.08;102494.31;213660;1274;140513;-68
2022/03/19 13:02:34;;;;;;;25.00;12.80;;;;;;;9.30;31.99;102491.51;214495;1274;140527;-68
2022/03/19 13:07:39;;;;;;;15.20;10.10;;;;;;;9.26;31.80;102489.45;214460;1273;139579;-68
2022/03/19 13:12:44;;;;;;;11.60;8.20;;;;;;;9.14;31.89;102496.61;214153;1273;140301;-68
2022/03/19 13:17:48;;;;;;;13.10;9.20;;;;;;;9.18;32.35;102489.05;214343;1273;140894;-69
2022/03/19 13:23:02;;;;;;;13.30;9.90;;;;;;;9.20;32.07;102492.39;214545;1274;139467;-69
2022/03/19 13:28:07;;;;;;;12.90;9.70;;;;;;;9.18;32.07;102489.23;214245;1272;139846;-68
2022/03/19 13:33:17;;;;;;;16.60;10.30;;;;;;;9.22;31.91;102488.64;214387;1274;140349;-69
2022/03/19 13:38:25;;;;;;;17.00;9.40;;;;;;;9.13;31.77;102488.37;213825;1273;140323;-68
2022/03/19 13:43:37;;;;;;;14.40;11.00;;;;;;;9.06;31.45;102493.12;213310;1274;139605;-69
2022/03/19 13:48:43;;;;;;;12.40;9.10;;;;;;;8.91;31.37;102493.11;215271;1274;139831;-69
2022/03/19 13:53:59;;;;;;;26.80;15.00;;;;;;;8.84;31.30;102486.63;213709;1274;140378;-69
2022/03/19 13:59:03;;;;;;;17.70;12.00;;;;;;;8.77;31.49;102485.02;214706;1274;139790;-70
2022/03/19 14:04:18;;;;;;;20.90;11.90;;;;;;;8.75;31.64;102482.31;215087;1271;139501;-70
2022/03/19 14:09:22;;;;;;;16.60;10.60;;;;;;;8.74;31.57;102478.31;214873;1274;141214;-70
2022/03/19 14:14:35;;;;;;;17.70;11.60;;;;;;;8.72;31.55;102475.90;214255;1274;140418;-71
2022/03/19 14:19:38;;;;;;;10.70;9.40;;;;;;;8.76;31.66;102475.98;213777;1274;141150;-74
2022/03/19 14:24:42;;;;;;;17.00;10.50;;;;;;;8.87;31.82;102470.27;213662;1274;141270;-67
2022/03/19 14:29:45;;;;;;;16.40;10.80;;;;;;;8.85;31.40;102475.16;216076;1274;140393;-75
2022/03/19 14:34:49;;;;;;;17.60;9.60;;;;;;;8.78;31.71;102468.04;215220;1274;139464;-74
2022/03/19 14:39:54;;;;;;;16.40;9.90;;;;;;;8.69;31.62;102465.74;214952;1274;140466;-73
2022/03/19 14:44:58;;;;;;;12.40;10.00;;;;;;;8.68;31.66;102456.83;213739;1273;141696;-71
2022/03/19 14:50:01;;;;;;;30.90;10.30;;;;;;;8.67;32.09;102449.44;213440;1274;141247;-67
2022/03/19 14:55:05;;;;;;;17.60;10.80;;;;;;;8.65;31.96;102451.55;214035;1273;140997;-69
2022/03/19 15:00:10;;;;;;;19.10;12.20;;;;;;;8.61;32.21;102450.42;214726;1273;140712;-68
2022/03/19 15:05:14;;;;;;;15.90;10.70;;;;;;;8.57;32.17;102449.00;215135;1273;139818;-70
2022/03/19 15:10:19;;;;;;;17.50;11.40;;;;;;;8.51;32.21;102444.73;215002;1273;141741;-70
2022/03/19 15:15:23;;;;;;;13.60;10.10;;;;;;;8.42;31.85;102447.23;214151;1273;143936;-72
2022/03/19 15:20:27;;;;;;;18.30;11.70;;;;;;;8.34;32.04;102440.91;213577;1273;141291;-70
2022/03/19 15:25:31;;;;;;;13.80;9.30;;;;;;;8.30;32.23;102441.85;215419;1272;141337;-68
2022/03/19 15:30:39;;;;;;;15.40;11.20;;;;;;;8.21;32.33;102441.66;214356;1273;139724;-72
2022/03/19 15:36:12;;;;;;;13.10;10.20;;;;;;;8.13;31.99;102441.64;213545;1273;140363;-71
2022/03/19 15:41:19;;;;;;;16.40;9.90;;;;;;;8.03;32.20;102440.65;214370;1272;139803;-71
2022/03/19 15:46:25;;;;;;;14.80;10.50;;;;;;;7.93;32.47;102444.15;213775;1274;139306;-68
2022/03/19 15:51:28;;;;;;;13.00;10.20;;;;;;;7.84;32.87;102446.29;213795;1273;140934;-68
2022/03/19 15:56:32;;;;;;;13.60;10.40;;;;;;;7.76;33.13;102448.49;215344;1271;140399;-73
2022/03/19 16:01:40;;;;;;;19.30;10.60;;;;;;;7.65;32.42;102445.66;215021;1274;140343;-69
2022/03/19 16:06:47;;;;;;;14.10;9.80;;;;;;;7.56;33.10;102448.85;213964;1274;140551;-71
2022/03/19 16:11:51;;;;;;;12.90;9.20;;;;;;;7.40;33.28;102449.33;214970;1274;140555;-71
2022/03/19 16:16:57;;;;;;;15.70;10.10;;;;;;;7.24;33.26;102454.64;214972;1274;140362;-68
2022/03/19 16:22:01;;;;;;;19.00;11.30;;;;;;;7.12;33.75;102459.10;216349;1273;141278;-71
2022/03/19 16:27:06;;;;;;;36.70;13.60;;;;;;;6.98;33.47;102457.08;213990;1274;140151;-70
2022/03/19 16:32:11;;;;;;;14.70;10.10;;;;;;;6.86;33.92;102453.59;216145;1274;140320;-72
2022/03/19 16:37:17;;;;;;;34.10;12.40;;;;;;;6.71;33.84;102460.30;215812;1274;140950;-68
2022/03/19 16:42:22;;;;;;;27.60;12.80;;;;;;;6.54;33.95;102460.39;216186;1274;139828;-68
2022/03/19 16:47:27;;;;;;;18.10;11.00;;;;;;;6.38;34.33;102462.54;215106;1274;140782;-66
2022/03/19 16:52:32;;;;;;;16.40;10.10;;;;;;;6.20;34.23;102463.11;215731;1274;140380;-73
2022/03/19 16:57:37;;;;;;;15.60;10.00;;;;;;;5.96;34.52;102464.81;214516;1274;141313;-72
2022/03/19 17:02:41;;;;;;;22.70;10.60;;;;;;;5.65;35.04;102471.64;213756;1274;139539;-72
2022/03/19 17:07:45;;;;;;;23.50;12.30;;;;;;;5.35;35.66;102475.51;215687;1274;139703;-74
2022/03/19 17:12:49;;;;;;;24.40;12.30;;;;;;;5.16;36.08;102479.94;214267;1274;141809;-74
2022/03/19 17:17:52;;;;;;;31.10;13.80;;;;;;;4.97;36.38;102481.41;213933;1273;140031;-70
2022/03/19 17:22:56;;;;;;;31.30;15.70;;;;;;;4.75;37.03;102481.02;214437;1274;140050;-69
2022/03/19 17:27:59;;;;;;;28.20;15.20;;;;;;;4.57;37.61;102486.95;215292;1273;141071;-72
2022/03/19 17:33:03;;;;;;;28.30;17.80;;;;;;;4.37;38.80;102498.84;213650;1274;141328;-70
2022/03/19 17:38:07;;;;;;;27.10;16.50;;;;;;;4.11;39.28;102496.09;214129;1274;140509;-73
2022/03/19 17:43:10;;;;;;;29.20;15.50;;;;;;;3.86;40.09;102504.43;214103;1274;141701;-74
2022/03/19 17:48:14;;;;;;;29.90;16.90;;;;;;;3.60;40.40;102510.20;214726;1274;141375;-74
2022/03/19 17:53:19;;;;;;;21.00;15.60;;;;;;;3.34;40.98;102518.27;214227;1273;143057;-68
2022/03/19 17:58:23;;;;;;;28.80;17.00;;;;;;;2.94;41.17;102521.73;214482;1274;154090;-72
2022/03/19 18:03:26;;;;;;;39.80;20.00;;;;;;;2.64;42.02;102525.94;214346;1274;142198;-69
2022/03/19 18:08:30;;;;;;;38.30;18.80;;;;;;;2.48;42.85;102532.04;213570;1274;140392;-71
2022/03/19 18:13:34;;;;;;;24.30;17.30;;;;;;;2.31;43.27;102528.39;214515;1274;139862;-69
2022/03/19 18:18:38;;;;;;;30.60;20.00;;;;;;;2.09;43.32;102530.02;213923;1274;153347;-68
2022/03/19 18:23:42;;;;;;;46.40;23.80;;;;;;;1.87;43.65;102535.33;214631;1274;141173;-70
2022/03/19 18:28:46;;;;;;;29.20;18.40;;;;;;;1.63;44.87;102537.02;215534;1274;140391;-69
2022/03/19 18:33:54;;;;;;;33.70;18.20;;;;;;;1.38;45.41;102546.32;216436;1273;140741;-75
2022/03/19 18:39:00;;;;;;;29.40;18.10;;;;;;;1.17;45.63;102549.20;214624;1273;143356;-71
2022/03/19 18:44:05;;;;;;;43.20;17.60;;;;;;;0.99;46.53;102554.77;216475;1273;140963;-72
2022/03/19 18:49:10;;;;;;;32.90;15.80;;;;;;;0.83;46.96;102559.39;216445;1273;140411;-72
2022/03/19 18:54:15;;;;;;;23.60;12.80;;;;;;;0.59;47.07;102562.92;213235;1274;141284;-71
2022/03/19 18:59:20;;;;;;;34.00;16.60;;;;;;;0.38;47.69;102568.66;215119;1274;141905;-72
2022/03/19 19:04:25;;;;;;;32.00;16.50;;;;;;;0.29;48.05;102573.28;215442;1274;140086;-73
2022/03/19 19:09:30;;;;;;;37.60;18.10;;;;;;;0.20;48.41;102574.21;215390;1273;140166;-72
2022/03/19 19:14:36;;;;;;;37.60;18.00;;;;;;;0.06;48.76;102573.52;214080;1274;141076;-74
2022/03/19 19:19:42;;;;;;;36.00;20.30;;;;;;;-0.05;49.34;102578.99;213531;1274;141214;-73
2022/03/19 19:24:49;;;;;;;39.00;18.20;;;;;;;-0.15;49.68;102583.45;214445;1271;206269;-69
2022/03/19 19:29:54;;;;;;;35.40;18.80;;;;;;;-0.26;50.70;102587.64;215107;1272;139418;-74
2022/03/19 19:34:58;;;;;;;41.90;18.00;;;;;;;-0.36;51.16;102584.05;214538;1273;140163;-69
2022/03/19 19:40:05;;;;;;;38.70;19.20;;;;;;;-0.43;51.27;102582.03;213825;1274;141218;-70
2022/03/19 19:45:15;;;;;;;40.10;19.20;;;;;;;-0.48;51.82;102587.08;214148;1274;141497;-71
2022/03/19 19:50:23;;;;;;;34.00;20.60;;;;;;;-0.56;52.26;102587.71;213902;1274;141353;-65
2022/03/19 19:55:29;;;;;;;35.90;20.10;;;;;;;-0.72;52.26;102586.60;214300;1274;140462;-64
2022/03/19 20:00:36;;;;;;;31.00;16.70;;;;;;;-0.81;52.41;102588.19;214241;1274;140117;-66
2022/03/19 20:05:43;;;;;;;37.70;19.20;;;;;;;-0.95;52.64;102585.91;213850;1274;142070;-70
2022/03/19 20:10:48;;;;;;;49.70;23.30;;;;;;;-1.10;52.80;102585.52;214528;1274;140396;-68
2022/03/19 20:15:53;;;;;;;52.40;22.10;;;;;;;-1.21;53.53;102584.64;214478;1274;140886;-69
2022/03/19 20:20:58;;;;;;;35.40;21.40;;;;;;;-1.27;54.31;102587.93;214377;1274;141551;-69
2022/03/19 20:26:03;;;;;;;45.30;20.80;;;;;;;-1.30;54.57;102590.59;213878;1273;160438;-72
2022/03/19 20:31:08;;;;;;;46.80;23.90;;;;;;;-1.40;54.67;102590.60;215977;1274;140612;-74
2022/03/19 20:36:12;;;;;;;47.60;22.10;;;;;;;-1.42;54.85;102591.79;215676;1274;141161;-65
2022/03/19 20:41:16;;;;;;;51.50;22.90;;;;;;;-1.41;55.24;102594.35;214985;1273;140983;-70
2022/03/19 20:46:20;;;;;;;51.20;25.20;;;;;;;-1.45;55.30;102596.80;216347;1273;141062;-70
2022/03/19 20:51:27;;;;;;;50.30;26.60;;;;;;;-1.51;55.57;102600.99;216121;1271;140675;-68
2022/03/19 20:56:35;;;;;;;53.20;24.90;;;;;;;-1.55;55.79;102599.36;216149;1274;140757;-68
2022/03/19 21:01:42;;;;;;;59.00;26.20;;;;;;;-1.57;55.72;102603.43;215540;1274;150711;-71
2022/03/19 21:06:49;;;;;;;65.30;30.10;;;;;;;-1.56;55.55;102595.73;214561;1274;140260;-69
2022/03/19 21:11:53;;;;;;;44.10;23.60;;;;;;;-1.57;55.70;102595.08;214717;1273;140554;-68
2022/03/19 21:16:58;;;;;;;57.90;26.80;;;;;;;-1.62;55.96;102595.02;215218;1273;140736;-67
2022/03/19 21:22:03;;;;;;;50.40;25.80;;;;;;;-1.61;55.74;102598.09;214693;1273;140096;-65
2022/03/19 21:27:07;;;;;;;46.00;26.40;;;;;;;-1.60;55.29;102597.86;214634;1273;140512;-68
2022/03/19 21:32:12;;;;;;;44.90;25.20;;;;;;;-1.58;55.36;102599.33;214411;1273;141417;-69
2022/03/19 21:37:20;;;;;;;48.00;25.20;;;;;;;-1.60;55.57;102598.41;213956;1273;141801;-67
2022/03/19 21:42:25;;;;;;;52.20;28.40;;;;;;;-1.68;55.63;102598.17;214342;1274;140426;-66
2022/03/19 21:47:29;;;;;;;44.50;26.90;;;;;;;-1.78;55.92;102603.76;214178;1274;141013;-66
2022/03/19 21:52:33;;;;;;;44.00;25.30;;;;;;;-1.84;56.18;102603.73;213381;1273;834520;-66
2022/03/19 21:57:37;;;;;;;41.20;22.40;;;;;;;-1.92;56.60;102607.86;213837;1274;140846;-68
2022/03/19 22:02:45;;;;;;;43.90;22.80;;;;;;;-2.04;56.71;102610.27;214221;1273;139782;-65
2022/03/19 22:07:50;;;;;;;46.90;26.50;;;;;;;-2.17;57.13;102615.85;214130;1273;139861;-66
2022/03/19 22:13:04;;;;;;;52.80;27.10;;;;;;;-2.28;57.29;102613.48;214621;1272;141403;-65
2022/03/19 22:18:13;;;;;;;40.70;24.20;;;;;;;-2.36;57.19;102618.39;214622;1273;141606;-69
2022/03/19 22:23:17;;;;;;;44.70;23.20;;;;;;;-2.44;57.33;102624.23;214304;1274;140230;-66
2022/03/19 22:28:23;;;;;;;40.90;23.00;;;;;;;-2.59;57.69;102625.20;216256;1273;140042;-69
2022/03/19 22:33:30;;;;;;;39.30;21.40;;;;;;;-2.68;57.61;102627.41;215997;1272;140309;-71
2022/03/19 22:38:37;;;;;;;49.60;25.30;;;;;;;-2.78;57.66;102628.24;215236;1273;141073;-68
2022/03/19 22:43:41;;;;;;;46.80;26.40;;;;;;;-2.87;57.89;102628.88;216479;1274;140954;-68
2022/03/19 22:48:45;;;;;;;49.00;25.00;;;;;;;-2.87;58.12;102625.75;216267;1273;141759;-67
2022/03/19 22:53:49;;;;;;;50.00;25.20;;;;;;;-2.83;58.25;102626.61;215393;1273;140597;-66
2022/03/19 22:58:53;;;;;;;44.30;22.40;;;;;;;-2.78;58.75;102630.52;215545;1273;141222;-65
2022/03/19 23:03:58;;;;;;;42.90;23.10;;;;;;;-2.76;59.18;102631.83;215486;1272;139663;-64
2022/03/19 23:09:06;;;;;;;37.80;20.90;;;;;;;-2.76;59.40;102636.87;215879;1273;143011;-66